Time;durP1;ratioP1;P1;durP2;ratioP2;P2;SDS_P1;SDS_P2;PMS_P1;PMS_P2;Temp;Humidity;BMP_temperature;BMP_pressure;BME280_temperature;BME280_humidity;BME280_pressure;Samples;Min_cycle;Max_cycle;Signal;HPM_P1;HPM_P2
2022/12/16 00:00:15;;;;;;;66.27;30.63;;;;;;;-3.74;100.00;146504.59;5016265;28;20033;-62
2022/12/16 00:02:41;;;;;;;63.10;30.63;;;;;;;-3.73;100.00;146507.16;5028930;28;20056;-62
2022/12/16 00:05:07;;;;;;;58.53;29.30;;;;;;;-3.74;100.00;146504.59;5031164;28;20037;-62
2022/12/16 00:07:33;;;;;;;57.00;29.73;;;;;;;-3.80;100.00;146489.25;5012619;28;20033;-62
2022/12/16 00:09:58;;;;;;;56.17;27.97;;;;;;;-3.83;100.00;146481.59;5012744;28;20268;-62
2022/12/16 00:12:23;;;;;;;55.83;28.00;;;;;;;-3.89;100.00;146466.22;5013036;28;20026;-62
2022/12/16 00:14:49;;;;;;;59.47;27.70;;;;;;;-3.93;100.00;146456.00;5025390;28;20110;-63
2022/12/16 00:17:14;;;;;;;55.90;28.50;;;;;;;-3.97;100.00;146445.81;5030293;28;20068;-62
2022/12/16 00:19:40;;;;;;;60.07;27.77;;;;;;;-4.04;100.00;146429.16;5017954;28;20022;-62
2022/12/16 00:22:05;;;;;;;58.40;28.53;;;;;;;-4.10;100.00;146412.56;5016445;28;20032;-62
2022/12/16 00:24:30;;;;;;;57.70;27.40;;;;;;;-4.20;100.00;146389.56;5031028;28;20025;-62
2022/12/16 00:26:56;;;;;;;54.10;27.17;;;;;;;-4.24;100.00;146379.34;5020101;28;20068;-62
2022/12/16 00:29:22;;;;;;;55.70;27.57;;;;;;;-4.23;100.00;146380.63;5011350;28;20072;-62
2022/12/16 00:31:47;;;;;;;60.13;28.30;;;;;;;-4.18;100.00;146394.66;5012564;28;20079;-62
2022/12/16 00:34:13;;;;;;;59.30;29.27;;;;;;;-4.17;100.00;146397.22;5013238;28;20117;-63
2022/12/16 00:36:39;;;;;;;61.83;28.60;;;;;;;-4.19;100.00;146392.13;5012288;28;20049;-61
2022/12/16 00:39:04;;;;;;;54.17;26.77;;;;;;;-4.23;100.00;146381.91;5015971;28;20256;-62
2022/12/16 00:41:30;;;;;;;55.17;27.60;;;;;;;-4.21;100.00;146387.00;5028889;28;20065;-63
2022/12/16 00:43:55;;;;;;;58.13;27.70;;;;;;;-4.14;100.00;146403.59;5021842;28;20061;-62
2022/12/16 00:46:20;;;;;;;61.83;28.00;;;;;;;-4.03;100.00;146431.72;5014706;28;20380;-62
2022/12/16 00:48:46;;;;;;;62.37;27.80;;;;;;;-3.94;100.00;146453.47;5029562;28;20024;-62
2022/12/16 00:51:11;;;;;;;57.57;28.67;;;;;;;-3.87;100.00;146471.38;5028515;28;20051;-62
2022/12/16 00:53:37;;;;;;;52.27;26.47;;;;;;;-3.83;100.00;146481.59;5025524;28;20052;-62
2022/12/16 00:56:05;;;;;;;63.17;29.77;;;;;;;-3.82;100.00;146484.13;5030503;28;20025;-63
2022/12/16 00:58:30;;;;;;;57.47;28.27;;;;;;;-3.80;100.00;146487.97;5027504;28;20060;-62
2022/12/16 01:00:55;;;;;;;60.80;28.67;;;;;;;-3.82;100.00;146484.13;5030278;28;20744;-62
2022/12/16 01:03:21;;;;;;;61.47;27.73;;;;;;;-3.85;100.00;146476.47;5030543;28;20045;-63
2022/12/16 01:05:46;;;;;;;54.07;27.47;;;;;;;-3.90;100.00;146463.66;5017202;28;20040;-62
2022/12/16 01:08:12;;;;;;;59.53;28.63;;;;;;;-3.99;100.00;146440.69;5012859;28;20086;-63
2022/12/16 01:10:37;;;;;;;57.80;27.57;;;;;;;-4.10;100.00;146413.84;5016582;28;20381;-62
2022/12/16 01:13:02;;;;;;;62.20;27.37;;;;;;;-4.25;100.00;146376.75;5026803;28;20469;-62
2022/12/16 01:15:28;;;;;;;55.23;26.70;;;;;;;-4.45;100.00;146325.69;5030185;28;20100;-62
2022/12/16 01:17:53;;;;;;;58.23;26.90;;;;;;;-4.59;100.00;146289.94;5027296;28;20029;-62
2022/12/16 01:20:18;;;;;;;53.73;23.40;;;;;;;-4.63;100.00;146279.69;5030429;28;20017;-62
2022/12/16 01:22:44;;;;;;;60.63;28.23;;;;;;;-4.48;100.00;146318.03;5029350;28;20111;-62
2022/12/16 01:25:11;;;;;;;60.90;28.53;;;;;;;-4.54;100.00;146302.69;5026686;28;20424;-62
2022/12/16 01:27:37;;;;;;;63.70;29.63;;;;;;;-4.67;100.00;146269.47;5013955;28;20026;-62
2022/12/16 01:30:03;;;;;;;59.80;28.63;;;;;;;-4.70;100.00;146261.84;5016659;28;20752;-63
2022/12/16 01:32:29;;;;;;;64.43;29.03;;;;;;;-4.76;100.00;146249.03;5024076;28;20038;-62
2022/12/16 01:34:54;;;;;;;59.27;28.80;;;;;;;-4.83;100.00;146231.19;5025980;28;20275;-62
2022/12/16 01:37:20;;;;;;;61.40;28.23;;;;;;;-4.88;100.00;146218.38;5023704;28;20025;-62
2022/12/16 01:39:46;;;;;;;65.97;29.33;;;;;;;-4.98;100.00;146192.84;5013863;28;20030;-62
2022/12/16 01:42:13;;;;;;;67.87;29.90;;;;;;;-5.00;100.00;146187.75;5023982;28;20025;-61
2022/12/16 01:44:42;;;;;;;64.90;29.33;;;;;;;-5.06;100.00;146172.44;5020465;28;20021;-62
2022/12/16 01:47:19;;;;;;;61.20;28.10;;;;;;;-4.97;100.00;146195.38;5021762;28;20745;-63
2022/12/16 01:49:47;;;;;;;64.20;28.47;;;;;;;-4.97;100.00;146195.38;5012114;28;20313;-62
2022/12/16 01:52:20;;;;;;;70.37;29.77;;;;;;;-4.99;100.00;146190.28;5015911;28;20276;-61
2022/12/16 01:54:59;;;;;;;66.40;28.80;;;;;;;-4.96;100.00;146196.72;5019630;28;20295;-62
2022/12/16 01:57:32;;;;;;;65.27;29.03;;;;;;;-4.96;100.00;146198.00;5013188;28;20300;-62
2022/12/16 01:59:57;;;;;;;60.03;29.00;;;;;;;-4.98;100.00;146192.84;5022144;28;20801;-62
2022/12/16 02:02:23;;;;;;;66.27;30.23;;;;;;;-5.03;100.00;146181.38;5047228;23;20770;-71
2022/12/16 02:05:34;;;;;;;74.63;31.77;;;;;;;-5.04;100.00;146177.53;5044380;28;20562;-71
2022/12/16 02:07:34;;;;;;;66.07;29.07;;;;;;;-4.99;100.00;146189.00;5040393;28;20045;-72
2022/12/16 02:10:00;;;;;;;63.80;30.50;;;;;;;-4.87;100.00;146219.66;5045990;28;20276;-72
2022/12/16 02:12:46;;;;;;;66.13;29.83;;;;;;;-4.87;100.00;146220.94;5039671;28;20060;-72
2022/12/16 02:15:41;;;;;;;61.30;28.40;;;;;;;-4.81;100.00;146236.28;5041714;28;20032;-72
2022/12/16 02:18:32;;;;;;;67.43;31.37;;;;;;;-4.88;100.00;146218.38;5051219;28;20341;-72
2022/12/16 02:21:09;;;;;;;69.27;30.90;;;;;;;-5.03;100.00;146180.09;5043433;28;20288;-72
2022/12/16 02:23:50;;;;;;;70.93;32.00;;;;;;;-5.16;100.00;146146.91;5050912;28;20492;-72
2022/12/16 02:26:28;;;;;;;69.57;30.58;;;;;;;-5.29;100.00;146115.00;5050393;28;20274;-72
2022/12/16 02:29:36;;;;;;;79.77;32.37;;;;;;;-5.38;100.00;146092.00;5050329;28;20039;-72
2022/12/16 02:32:19;;;;;;;71.83;31.47;;;;;;;-5.35;100.00;146100.94;5053196;28;20615;-72
2022/12/16 02:35:30;;;;;;;80.53;32.90;;;;;;;-5.34;100.00;146102.19;5045247;28;20279;-73
2022/12/16 02:38:16;;;;;;;73.00;32.27;;;;;;;-5.37;100.00;146095.81;5016502;28;20268;-73
2022/12/16 02:40:56;;;;;;;74.33;31.93;;;;;;;-5.46;100.00;146072.84;5047990;28;20279;-72
2022/12/16 02:43:45;;;;;;;75.00;32.40;;;;;;;-5.60;100.00;146037.13;5044485;28;20260;-72
2022/12/16 02:46:11;;;;;;;74.77;32.87;;;;;;;-5.79;100.00;145988.66;5042207;28;20298;-72
2022/12/16 02:48:36;;;;;;;69.03;29.70;;;;;;;-5.83;100.00;145979.69;5053082;28;20275;-72
2022/12/16 02:51:02;;;;;;;67.97;29.57;;;;;;;-5.59;100.00;146039.66;5048483;28;20448;-72
2022/12/16 02:53:29;;;;;;;68.77;31.07;;;;;;;-5.50;100.00;146062.66;5028521;28;20391;-72
2022/12/16 02:56:32;;;;;;;66.83;31.27;;;;;;;-5.49;100.00;146065.19;5039533;28;20451;-73
2022/12/16 02:59:15;;;;;;;66.50;29.83;;;;;;;-5.48;100.00;146067.75;5049817;28;20773;-72
2022/12/16 03:01:56;;;;;;;63.30;28.80;;;;;;;-5.29;100.00;146113.72;5041985;28;20423;-73
2022/12/16 03:04:29;;;;;;;71.47;29.83;;;;;;;-5.08;100.00;146167.34;5025662;28;20287;-72
2022/12/16 03:06:56;;;;;;;66.70;30.33;;;;;;;-4.86;100.00;146222.22;5031148;28;20036;-75
2022/12/16 03:09:28;;;;;;;69.33;33.07;;;;;;;-4.64;100.00;146277.13;5027058;28;20295;-74
2022/12/16 03:11:55;;;;;;;69.75;32.15;;;;;;;-4.51;100.00;146311.59;5029401;28;20620;-76
2022/12/16 03:14:24;;;;;;;56.23;26.73;;;;;;;-4.33;100.00;146356.34;5023035;28;20031;-76
2022/12/16 03:16:50;;;;;;;63.33;27.33;;;;;;;-4.22;100.00;146384.47;5017754;28;20904;-76
2022/12/16 03:19:15;;;;;;;63.90;31.27;;;;;;;-4.15;100.00;146401.03;5015297;28;20277;-76
2022/12/16 03:21:48;;;;;;;71.77;32.00;;;;;;;-4.05;100.00;146426.63;5019337;28;20064;-77
2022/12/16 03:24:14;;;;;;;64.23;30.37;;;;;;;-3.97;100.00;146445.81;5019160;28;20385;-76
2022/12/16 03:26:45;;;;;;;72.70;31.53;;;;;;;-3.94;100.00;146454.72;5017822;28;20272;-77
2022/12/16 03:29:32;;;;;;;61.00;29.00;;;;;;;-3.86;100.00;146473.94;5021145;28;20034;-76
2022/12/16 03:32:02;;;;;;;61.47;28.90;;;;;;;-3.77;100.00;146496.91;5014998;28;20285;-77
2022/12/16 03:34:40;;;;;;;55.80;27.77;;;;;;;-3.68;100.00;146519.91;5018961;28;20276;-77
2022/12/16 03:37:11;;;;;;;64.80;30.43;;;;;;;-3.64;100.00;146530.13;5015809;28;20283;-76
2022/12/16 03:39:49;;;;;;;56.33;29.77;;;;;;;-3.61;100.00;146537.84;5020469;28;20271;-75
2022/12/16 03:42:15;;;;;;;62.77;29.43;;;;;;;-3.62;100.00;146535.28;5016301;28;20041;-77
2022/12/16 03:44:47;;;;;;;60.67;28.37;;;;;;;-3.70;100.00;146514.81;5026599;28;20347;-73
2022/12/16 03:47:13;;;;;;;57.17;27.83;;;;;;;-3.68;100.00;146519.91;5030977;28;20727;-73
2022/12/16 03:49:38;;;;;;;55.63;28.63;;;;;;;-3.80;100.00;146487.97;5024568;28;20275;-72
2022/12/16 03:52:04;;;;;;;54.27;26.20;;;;;;;-3.95;100.00;146452.19;5031723;28;20558;-72
2022/12/16 03:54:30;;;;;;;57.97;27.40;;;;;;;-4.07;100.00;146420.22;5019755;28;20029;-72
2022/12/16 03:56:55;;;;;;;55.00;28.77;;;;;;;-4.13;100.00;146407.44;5025103;28;20033;-72
2022/12/16 03:59:21;;;;;;;53.87;26.50;;;;;;;-4.10;100.00;146412.56;5007089;28;20021;-73
2022/12/16 04:01:46;;;;;;;64.67;27.53;;;;;;;-4.06;100.00;146422.78;5027670;28;20427;-73
2022/12/16 04:04:12;;;;;;;52.93;27.30;;;;;;;-4.05;100.00;146425.34;5025218;28;20036;-73
2022/12/16 04:06:37;;;;;;;61.63;27.63;;;;;;;-4.03;100.00;146431.72;5025504;28;20045;-73
2022/12/16 04:09:03;;;;;;;55.83;27.10;;;;;;;-4.04;100.00;146427.88;5025549;28;20025;-73
2022/12/16 04:25:30;;;;;;;55.97;25.67;;;;;;;-4.30;100.00;146364.00;5028638;28;20377;-72
2022/12/16 04:27:57;;;;;;;56.77;27.00;;;;;;;-4.45;100.00;146325.69;5030095;28;20341;-71
2022/12/16 04:30:23;;;;;;;59.40;27.83;;;;;;;-4.57;100.00;146295.03;5027296;28;20272;-72
